Time;durP1;ratioP1;P1;durP2;ratioP2;P2;SDS_P1;SDS_P2;PMS_P1;PMS_P2;Temp;Humidity;BMP_temperature;BMP_pressure;BME280_temperature;BME280_humidity;BME280_pressure;Samples;Min_cycle;Max_cycle;Signal;HPM_P1;HPM_P2
2021/05/17 00:00:09;;;;;;;1.48;0.50;;;14.30;73.50;;;;;;2329039;54;20933;-75
2021/05/17 00:02:38;;;;;;;1.98;0.60;;;14.30;73.40;;;;;;2400268;53;20925;-73
2021/05/17 00:05:07;;;;;;;1.90;0.50;;;14.30;72.90;;;;;;2422597;53;21061;-75
2021/05/17 00:07:35;;;;;;;1.90;0.45;;;14.20;73.10;;;;;;2341947;54;21028;-73
2021/05/17 00:10:09;;;;;;;2.50;0.52;;;14.20;73.10;;;;;;2331260;54;20961;-73
2021/05/17 00:12:35;;;;;;;1.52;0.32;;;14.20;73.10;;;;;;2331090;54;21012;-74
2021/05/17 00:15:13;;;;;;;1.35;0.50;;;14.10;73.00;;;;;;2319535;54;20932;-74
2021/05/17 00:17:43;;;;;;;1.40;0.40;;;14.10;73.00;;;;;;2333868;54;20921;-72
2021/05/17 00:20:17;;;;;;;1.02;0.40;;;14.00;73.00;;;;;;2395206;53;20996;-74
2021/05/17 00:22:44;;;;;;;1.25;0.47;;;14.00;72.90;;;;;;2443847;53;21061;-74
2021/05/17 00:25:11;;;;;;;2.62;0.40;;;14.00;73.20;;;;;;2343262;54;20964;-74
2021/05/17 00:27:38;;;;;;;1.80;0.52;;;14.00;73.30;;;;;;2348963;53;21551;-76
2021/05/17 00:30:05;;;;;;;1.55;0.40;;;13.90;73.00;;;;;;2329990;54;20989;-74
2021/05/17 00:32:34;;;;;;;2.62;0.80;;;13.90;72.90;;;;;;2589545;53;20912;-73
2021/05/17 00:35:01;;;;;;;1.17;0.40;;;13.90;73.00;;;;;;2343797;55;21433;-73
2021/05/17 00:37:27;;;;;;;1.60;0.40;;;13.90;73.90;;;;;;2343961;55;20905;-74
2021/05/17 00:39:56;;;;;;;1.37;0.45;;;13.90;73.40;;;;;;2343493;55;20936;-76
2021/05/17 00:42:30;;;;;;;2.35;0.50;;;13.80;73.30;;;;;;2475024;53;21004;-73
2021/05/17 00:44:56;;;;;;;1.85;0.57;;;13.80;73.20;;;;;;2476661;53;20912;-73
2021/05/17 00:47:23;;;;;;;1.65;0.32;;;13.80;73.10;;;;;;2591111;53;20964;-75
2021/05/17 00:49:51;;;;;;;1.92;0.50;;;13.80;73.10;;;;;;2342375;54;20961;-75
2021/05/17 00:52:19;;;;;;;1.50;0.50;;;13.70;72.70;;;;;;2301672;55;21035;-74
2021/05/17 00:54:46;;;;;;;1.55;0.50;;;13.70;72.70;;;;;;2331241;54;20928;-73
2021/05/17 00:57:12;;;;;;;1.75;0.55;;;13.60;72.60;;;;;;2582187;53;20893;-73
2021/05/17 00:59:40;;;;;;;1.55;0.50;;;13.60;72.80;;;;;;2324691;54;20957;-73
2021/05/17 01:02:06;;;;;;;2.40;0.60;;;13.60;72.60;;;;;;2343662;55;20901;-74
2021/05/17 01:04:36;;;;;;;2.17;0.60;;;13.50;72.70;;;;;;2343990;55;21017;-73
2021/05/17 01:07:02;;;;;;;1.42;0.50;;;13.50;72.60;;;;;;2341241;54;20965;-73
2021/05/17 01:09:30;;;;;;;2.90;0.73;;;13.40;72.50;;;;;;2571294;53;21346;-74
2021/05/17 01:11:56;;;;;;;4.78;0.50;;;13.40;72.80;;;;;;2343573;55;20933;-74
2021/05/17 01:14:23;;;;;;;2.00;0.47;;;13.30;72.90;;;;;;2343912;55;20933;-75
2021/05/17 01:16:53;;;;;;;3.20;0.80;;;13.30;73.30;;;;;;2320038;54;20964;-75
2021/05/17 01:19:46;;;;;;;3.05;0.75;;;13.30;73.40;;;;;;2324723;55;20952;-73
2021/05/17 01:22:22;;;;;;;1.58;0.68;;;13.30;73.50;;;;;;2343965;54;21394;-73
2021/05/17 01:24:49;;;;;;;3.35;0.68;;;13.30;73.60;;;;;;2315369;54;20956;-74
2021/05/17 01:27:16;;;;;;;6.12;0.90;;;13.30;73.80;;;;;;2331275;54;20953;-73
2021/05/17 01:29:42;;;;;;;2.03;0.65;;;13.30;73.80;;;;;;2586091;53;21488;-73
2021/05/17 01:32:09;;;;;;;4.57;1.10;;;13.30;74.00;;;;;;2323658;54;20921;-73
2021/05/17 01:34:38;;;;;;;2.40;0.57;;;13.30;74.00;;;;;;2326481;54;20992;-74
2021/05/17 01:37:08;;;;;;;3.95;0.95;;;13.30;74.00;;;;;;2444887;53;21280;-74
2021/05/17 01:39:35;;;;;;;2.28;0.60;;;13.30;74.00;;;;;;2572109;53;21001;-76
2021/05/17 01:42:01;;;;;;;4.40;0.70;;;13.30;74.00;;;;;;2343972;54;21193;-75
2021/05/17 01:44:27;;;;;;;2.12;0.73;;;13.40;74.10;;;;;;2339075;54;20952;-73
2021/05/17 01:46:54;;;;;;;4.05;1.00;;;13.30;74.10;;;;;;2320588;54;20933;-76
2021/05/17 01:49:20;;;;;;;3.25;0.60;;;13.30;73.90;;;;;;2344020;55;20968;-73
2021/05/17 01:51:48;;;;;;;4.43;0.80;;;13.40;74.20;;;;;;2332233;54;21040;-75
2021/05/17 01:54:15;;;;;;;2.58;0.80;;;13.40;74.20;;;;;;2336550;54;20973;-72
2021/05/17 01:56:42;;;;;;;3.58;0.70;;;13.40;74.20;;;;;;2342778;54;21005;-73
2021/05/17 01:59:09;;;;;;;3.60;0.80;;;13.40;74.30;;;;;;2340289;54;21013;-74
2021/05/17 02:01:35;;;;;;;1.90;0.60;;;13.40;74.10;;;;;;2558152;53;20995;-76
2021/05/17 02:04:05;;;;;;;2.55;0.62;;;13.40;74.10;;;;;;2319171;53;20944;-75
2021/05/17 02:06:32;;;;;;;3.05;0.77;;;13.40;74.20;;;;;;2589449;53;20905;-74
2021/05/17 02:08:58;;;;;;;4.57;0.82;;;13.40;74.10;;;;;;2343431;55;20922;-73
2021/05/17 02:11:25;;;;;;;5.30;0.70;;;13.40;74.20;;;;;;2343869;55;20973;-74
2021/05/17 02:13:52;;;;;;;2.80;0.80;;;13.40;74.00;;;;;;2327416;54;21122;-72
2021/05/17 02:16:19;;;;;;;2.37;0.95;;;13.40;74.00;;;;;;2319528;54;21470;-74
2021/05/17 02:18:47;;;;;;;4.30;1.05;;;13.40;74.00;;;;;;2587854;53;21422;-75
2021/05/17 02:21:14;;;;;;;4.28;0.80;;;13.40;74.00;;;;;;2329654;54;20939;-74
2021/05/17 02:23:40;;;;;;;3.62;0.77;;;13.40;74.00;;;;;;2340111;54;21813;-73
2021/05/17 02:26:08;;;;;;;6.15;0.93;;;13.40;74.20;;;;;;2589669;53;20937;-75
2021/05/17 02:28:36;;;;;;;4.72;1.02;;;13.40;74.20;;;;;;2324137;54;20992;-73
2021/05/17 02:31:06;;;;;;;3.20;0.90;;;13.40;74.30;;;;;;2344167;55;20945;-72
2021/05/17 02:33:33;;;;;;;4.95;0.85;;;13.40;74.40;;;;;;2332702;54;21020;-75
2021/05/17 02:36:00;;;;;;;5.78;1.10;;;13.40;74.50;;;;;;2321904;54;21411;-74
2021/05/17 02:38:26;;;;;;;4.05;1.00;;;13.40;74.60;;;;;;2338020;54;21917;-73
2021/05/17 02:40:53;;;;;;;3.65;0.70;;;13.50;74.70;;;;;;2590010;53;20950;-75
2021/05/17 02:43:21;;;;;;;3.30;0.82;;;13.40;74.60;;;;;;2343987;55;20993;-74
2021/05/17 02:45:48;;;;;;;3.30;1.10;;;13.50;74.70;;;;;;2343750;55;20937;-72
2021/05/17 02:48:14;;;;;;;2.95;1.00;;;13.50;74.70;;;;;;2346428;53;20941;-74
2021/05/17 02:50:46;;;;;;;6.32;1.08;;;13.50;74.50;;;;;;2589326;53;20926;-73
2021/05/17 02:55:05;;;;;;;2.78;0.75;;;13.50;74.40;;;;;;2344005;55;20957;-75
2021/05/17 02:57:39;;;;;;;3.30;0.88;;;13.50;73.60;;;;;;2312570;55;21485;-74
2021/05/17 03:00:19;;;;;;;3.80;0.80;;;13.50;73.90;;;;;;2328452;54;20952;-76
2021/05/17 03:02:54;;;;;;;1.90;0.70;;;13.50;74.00;;;;;;2555238;53;20989;-73
2021/05/17 03:05:20;;;;;;;3.90;1.00;;;13.50;73.80;;;;;;2325410;54;21004;-74
2021/05/17 03:07:52;;;;;;;2.78;0.82;;;13.50;73.90;;;;;;2336333;53;20933;-74
2021/05/17 03:10:18;;;;;;;3.00;0.80;;;13.40;73.90;;;;;;2320937;53;20956;-75
2021/05/17 03:12:45;;;;;;;3.78;0.65;;;13.40;74.00;;;;;;2329245;53;21773;-75
2021/05/17 03:15:12;;;;;;;4.18;1.10;;;13.40;74.00;;;;;;2316791;53;21386;-75
2021/05/17 03:17:38;;;;;;;2.20;0.70;;;13.40;73.90;;;;;;2332048;53;21043;-74
2021/05/17 03:20:06;;;;;;;3.28;0.75;;;13.40;74.00;;;;;;2319745;53;20925;-75
2021/05/17 03:22:34;;;;;;;3.03;0.80;;;13.40;73.90;;;;;;2376623;53;20957;-74
2021/05/17 03:25:00;;;;;;;3.37;0.68;;;13.40;73.80;;;;;;2379078;54;21112;-73
2021/05/17 03:27:28;;;;;;;1.83;0.65;;;13.40;73.80;;;;;;2580218;53;20913;-75
2021/05/17 03:29:55;;;;;;;2.20;0.65;;;13.30;73.70;;;;;;2584620;52;20926;-74
2021/05/17 03:32:25;;;;;;;2.70;0.52;;;13.30;73.50;;;;;;2343415;54;20955;-72
2021/05/17 03:34:51;;;;;;;2.60;0.60;;;13.30;73.60;;;;;;2505126;53;21409;-73
2021/05/17 03:37:18;;;;;;;1.33;0.50;;;13.30;73.70;;;;;;2568988;52;20995;-73
2021/05/17 03:39:48;;;;;;;1.45;0.50;;;13.30;73.60;;;;;;2343132;54;20918;-74
2021/05/17 03:42:14;;;;;;;1.98;0.50;;;13.30;73.80;;;;;;2342880;54;21037;-75
2021/05/17 03:44:41;;;;;;;3.87;0.57;;;13.20;73.80;;;;;;2569326;53;21744;-74
2021/05/17 03:47:09;;;;;;;2.37;0.40;;;13.20;73.80;;;;;;2580811;53;20961;-74
2021/05/17 03:49:36;;;;;;;1.00;0.50;;;13.30;74.00;;;;;;2337932;54;20917;-73
2021/05/17 03:52:05;;;;;;;4.22;0.62;;;13.20;73.90;;;;;;2334646;53;21423;-74
2021/05/17 03:54:32;;;;;;;3.00;0.60;;;13.20;73.80;;;;;;2509646;52;20984;-74
2021/05/17 03:57:00;;;;;;;2.35;0.50;;;13.20;73.80;;;;;;2319282;54;20977;-73
2021/05/17 03:59:28;;;;;;;3.12;0.65;;;13.20;73.90;;;;;;2340076;54;21021;-74
2021/05/17 04:01:55;;;;;;;3.60;0.47;;;13.20;73.90;;;;;;2343539;54;21866;-75
2021/05/17 04:04:23;;;;;;;2.45;0.60;;;13.20;74.10;;;;;;2338098;54;20998;-74
2021/05/17 04:07:20;;;;;;;4.47;0.77;;;13.20;74.10;;;;;;2343133;54;20961;-75
2021/05/17 04:13:18;;;;;;;2.22;0.68;;;13.20;74.30;;;;;;2589843;52;21728;-72
2021/05/17 04:15:45;;;;;;;4.10;0.90;;;13.20;74.40;;;;;;2342885;54;21353;-73
2021/05/17 04:18:12;;;;;;;7.47;1.00;;;13.30;74.40;;;;;;2340532;54;21027;-71
2021/05/17 04:20:38;;;;;;;2.95;0.80;;;13.30;74.30;;;;;;2321713;54;20976;-74
2021/05/17 04:23:04;;;;;;;6.05;1.30;;;13.30;74.30;;;;;;2337052;54;21841;-73
2021/05/17 04:25:31;;;;;;;5.00;0.90;;;13.30;74.30;;;;;;2329601;54;21072;-74
2021/05/17 04:27:57;;;;;;;5.50;1.10;;;13.30;74.30;;;;;;2471798;53;21014;-77
2021/05/17 04:30:25;;;;;;;3.45;1.20;;;13.30;74.30;;;;;;2589787;52;20983;-74
2021/05/17 04:32:51;;;;;;;5.75;1.40;;;13.30;74.30;;;;;;2589779;52;21474;-72
2021/05/17 04:35:17;;;;;;;2.62;0.90;;;13.30;74.40;;;;;;2335843;54;20914;-74
2021/05/17 04:37:43;;;;;;;4.35;0.90;;;13.30;74.40;;;;;;2343629;54;21632;-73
2021/05/17 04:40:11;;;;;;;5.47;1.12;;;13.30;74.50;;;;;;2343638;54;20906;-73
2021/05/17 04:42:37;;;;;;;1.95;0.80;;;13.30;74.40;;;;;;2343568;54;20950;-75
2021/05/17 04:45:05;;;;;;;4.40;1.02;;;13.30;74.50;;;;;;2343798;54;21142;-72
2021/05/17 04:47:31;;;;;;;4.05;0.90;;;13.40;74.50;;;;;;2589483;52;20937;-75
2021/05/17 04:49:57;;;;;;;6.68;1.62;;;13.40;74.60;;;;;;2342986;54;21775;-74
2021/05/17 04:52:23;;;;;;;4.72;1.12;;;13.40;75.10;;;;;;2343332;54;20931;-75
2021/05/17 04:54:50;;;;;;;4.53;0.80;;;13.40;74.40;;;;;;2397001;52;20948;-72
2021/05/17 04:57:16;;;;;;;5.03;0.95;;;13.40;74.60;;;;;;2590363;52;20966;-75
2021/05/17 04:59:56;;;;;;;7.25;1.30;;;13.40;74.50;;;;;;2343322;54;22086;-75
2021/05/17 05:02:23;;;;;;;4.72;1.30;;;13.40;74.40;;;;;;2343320;54;21013;-74
2021/05/17 05:04:49;;;;;;;4.15;2.00;;;13.40;74.20;;;;;;2342873;54;20946;-72
2021/05/17 05:07:16;;;;;;;5.85;2.58;;;13.50;75.10;;;;;;2342114;54;20969;-75
2021/05/17 05:09:46;;;;;;;4.43;1.25;;;13.50;74.50;;;;;;2343142;54;20975;-73
2021/05/17 05:12:12;;;;;;;5.60;1.80;;;13.50;74.20;;;;;;2338231;55;21015;-74
2021/05/17 05:14:39;;;;;;;3.90;1.25;;;13.50;74.50;;;;;;2343909;54;21123;-72
2021/05/17 05:17:05;;;;;;;5.85;1.30;;;13.50;74.50;;;;;;2562722;53;21621;-73
2021/05/17 05:19:32;;;;;;;3.15;1.10;;;13.50;74.30;;;;;;2496029;53;20976;-72
2021/05/17 05:21:58;;;;;;;5.00;1.48;;;13.50;74.40;;;;;;2572279;52;22212;-72
2021/05/17 05:24:24;;;;;;;4.50;1.10;;;13.50;74.50;;;;;;2336078;54;20988;-73
2021/05/17 05:30:21;;;;;;;5.47;1.50;;;13.60;74.10;;;;;;2344242;54;20977;-73
2021/05/17 05:36:17;;;;;;;4.57;0.93;;;13.50;74.30;;;;;;2343040;54;20967;-73
2021/05/17 05:38:43;;;;;;;4.82;1.05;;;13.60;74.10;;;;;;2343535;54;21465;-74
2021/05/17 05:41:10;;;;;;;4.25;0.93;;;13.60;74.00;;;;;;2342666;54;20922;-73
2021/05/17 05:43:37;;;;;;;3.80;0.90;;;13.60;73.80;;;;;;2583754;52;21405;-73
2021/05/17 05:46:04;;;;;;;4.95;1.08;;;13.60;73.80;;;;;;2340292;54;20966;-73
2021/05/17 05:48:31;;;;;;;4.75;1.08;;;13.60;73.80;;;;;;2419008;52;21423;-76
2021/05/17 05:50:58;;;;;;;6.50;1.25;;;13.60;73.70;;;;;;2343126;54;20962;-75
2021/05/17 05:53:25;;;;;;;3.90;1.10;;;13.50;73.40;;;;;;2341041;54;20944;-74
2021/05/17 05:55:53;;;;;;;2.72;0.88;;;13.50;73.50;;;;;;2340908;54;20947;-74
2021/05/17 05:58:21;;;;;;;2.37;0.60;;;13.50;73.70;;;;;;2582549;52;20937;-74
2021/05/17 06:00:47;;;;;;;4.12;0.95;;;13.50;73.90;;;;;;2571739;53;21844;-73
2021/05/17 06:03:15;;;;;;;4.50;0.93;;;13.50;74.10;;;;;;2342889;54;20968;-75
2021/05/17 06:05:41;;;;;;;4.53;1.00;;;13.50;74.30;;;;;;2328296;54;21771;-74
2021/05/17 06:08:09;;;;;;;4.18;0.93;;;13.50;74.30;;;;;;2458563;53;21037;-72
2021/05/17 06:10:35;;;;;;;4.37;0.85;;;13.50;74.20;;;;;;2338157;54;21012;-73
2021/05/17 06:13:03;;;;;;;3.45;0.82;;;13.40;74.30;;;;;;2339200;54;20928;-72
2021/05/17 06:15:30;;;;;;;2.55;0.65;;;13.40;74.30;;;;;;2556068;53;20932;-73
2021/05/17 06:18:00;;;;;;;4.53;1.15;;;13.40;74.40;;;;;;2316898;54;20910;-73
2021/05/17 06:20:36;;;;;;;3.20;0.85;;;13.50;74.50;;;;;;2342271;54;20990;-74
2021/05/17 06:23:03;;;;;;;2.25;0.80;;;13.50;74.80;;;;;;2341950;54;20973;-72
2021/05/17 06:25:29;;;;;;;3.85;0.75;;;13.50;75.30;;;;;;2342043;54;21410;-74
2021/05/17 06:27:57;;;;;;;3.42;0.90;;;13.50;74.90;;;;;;2341899;54;20939;-72
2021/05/17 06:30:24;;;;;;;3.08;0.80;;;13.50;75.00;;;;;;2342100;54;20931;-74
2021/05/17 06:32:51;;;;;;;3.22;0.80;;;13.60;75.30;;;;;;2321861;54;21036;-73
2021/05/17 06:35:24;;;;;;;3.53;0.95;;;13.60;75.70;;;;;;2342027;54;20930;-73
2021/05/17 06:37:50;;;;;;;4.15;0.98;;;13.60;76.30;;;;;;2338090;54;21502;-72
2021/05/17 06:40:16;;;;;;;3.83;1.12;;;13.70;76.50;;;;;;2337888;54;20946;-72
2021/05/17 06:42:43;;;;;;;2.62;0.70;;;13.80;76.40;;;;;;2498126;52;21751;-74
2021/05/17 06:45:10;;;;;;;4.20;0.90;;;13.80;76.50;;;;;;2341215;54;21817;-73
2021/05/17 06:47:36;;;;;;;4.93;0.82;;;13.90;76.20;;;;;;2318776;54;20903;-72
2021/05/17 06:50:04;;;;;;;4.03;0.80;;;14.00;76.40;;;;;;2480733;52;20990;-72
2021/05/17 06:52:32;;;;;;;3.33;0.80;;;14.00;76.90;;;;;;2342236;54;20935;-76
2021/05/17 06:55:04;;;;;;;5.35;0.85;;;14.20;76.90;;;;;;2428375;52;21273;-73
2021/05/17 06:57:48;;;;;;;;;;;14.20;77.20;;;;;;2341253;54;20933;-73
2021/05/17 07:00:29;;;;;;;6.45;1.00;;;14.30;75.70;;;;;;2340353;54;20066;-74
2021/05/17 07:03:14;;;;;;;4.93;0.90;;;14.40;76.60;;;;;;2558504;52;21939;-76
2021/05/17 07:05:42;;;;;;;2.37;0.70;;;14.60;76.60;;;;;;2343397;54;21091;-73
2021/05/17 07:13:41;;;;;;;4.87;0.82;;;14.70;75.60;;;;;;2588371;52;21780;-72
2021/05/17 07:16:07;;;;;;;4.80;0.93;;;14.80;75.00;;;;;;2341280;54;21421;-73
2021/05/17 07:18:33;;;;;;;6.22;1.10;;;14.80;74.70;;;;;;2338953;54;20931;-73
2021/05/17 07:24:12;;;;;;;4.32;1.50;;;14.70;74.30;;;;;;2350821;53;21384;-72
2021/05/17 07:26:38;;;;;;;2.95;0.70;;;14.70;74.10;;;;;;2588490;52;20927;-74
2021/05/17 07:29:07;;;;;;;5.20;1.27;;;14.70;74.00;;;;;;2582581;52;21032;-74
2021/05/17 07:31:35;;;;;;;3.12;0.90;;;14.70;74.10;;;;;;2420668;53;21092;-75
2021/05/17 07:34:01;;;;;;;3.67;0.90;;;14.70;74.20;;;;;;2342081;54;21021;-75
2021/05/17 07:36:29;;;;;;;6.57;1.50;;;14.70;74.30;;;;;;2489418;52;21042;-74
2021/05/17 07:38:55;;;;;;;4.65;0.82;;;14.70;74.00;;;;;;2341670;54;21024;-73
2021/05/17 07:41:22;;;;;;;2.83;0.80;;;14.60;74.10;;;;;;2323909;54;21541;-74
2021/05/17 07:43:49;;;;;;;7.03;1.08;;;14.60;74.20;;;;;;2459223;53;21011;-74
2021/05/17 07:46:15;;;;;;;6.93;0.82;;;14.60;74.20;;;;;;2339804;54;20947;-74
2021/05/17 07:51:28;;;;;;;4.25;0.80;;;14.60;74.80;;;;;;2307722;55;20927;-75
2021/05/17 07:53:55;;;;;;;5.12;1.00;;;14.60;75.60;;;;;;2578619;53;20970;-76
2021/05/17 07:56:22;;;;;;;4.32;0.70;;;14.60;76.50;;;;;;2589354;52;20959;-75
2021/05/17 07:58:49;;;;;;;4.07;1.37;;;14.70;77.20;;;;;;2528634;52;20954;-76
2021/05/17 08:01:15;;;;;;;4.70;1.30;;;14.80;78.30;;;;;;2346259;54;20942;-75
2021/05/17 08:03:45;;;;;;;5.30;1.05;;;15.00;79.10;;;;;;2404833;53;20971;-74
2021/05/17 08:06:23;;;;;;;4.80;0.95;;;15.20;79.90;;;;;;2324695;54;20944;-75
2021/05/17 08:08:49;;;;;;;4.80;1.20;;;15.30;78.30;;;;;;2391169;53;20919;-73
2021/05/17 08:11:16;;;;;;;5.78;1.70;;;15.50;77.80;;;;;;2343864;54;21842;-77
2021/05/17 08:13:42;;;;;;;4.97;1.00;;;15.60;76.70;;;;;;2346671;54;20922;-73
2021/05/17 08:16:16;;;;;;;4.00;0.95;;;15.60;76.00;;;;;;2345189;53;21039;-75
2021/05/17 08:18:43;;;;;;;3.58;0.80;;;15.70;75.10;;;;;;2396187;53;21001;-72
2021/05/17 08:21:09;;;;;;;4.93;0.90;;;15.70;75.10;;;;;;2337030;54;21006;-74
2021/05/17 08:23:37;;;;;;;2.78;0.90;;;15.80;74.80;;;;;;2572313;52;21074;-73
2021/05/17 08:26:07;;;;;;;4.55;1.15;;;15.80;74.30;;;;;;2414061;52;20989;-75
2021/05/17 08:28:35;;;;;;;5.10;1.17;;;15.80;72.50;;;;;;2477199;53;21434;-73
2021/05/17 08:31:02;;;;;;;6.25;1.00;;;15.80;73.20;;;;;;2527914;52;20918;-75
2021/05/17 08:33:29;;;;;;;5.50;1.05;;;15.80;73.30;;;;;;2588286;52;21032;-73
2021/05/17 08:35:56;;;;;;;4.03;0.98;;;15.80;73.20;;;;;;2496033;53;20928;-73
2021/05/17 08:38:22;;;;;;;4.18;1.30;;;15.80;73.80;;;;;;2336478;54;20958;-73
2021/05/17 08:40:48;;;;;;;3.65;0.93;;;15.80;73.30;;;;;;2338769;54;20972;-74
2021/05/17 08:43:15;;;;;;;2.97;0.80;;;15.90;72.90;;;;;;2342937;54;20910;-73
2021/05/17 08:45:43;;;;;;;3.12;0.80;;;15.90;73.40;;;;;;2343401;54;20931;-76
2021/05/17 08:48:10;;;;;;;5.07;1.10;;;15.90;73.40;;;;;;2344819;54;20971;-76
2021/05/17 08:50:36;;;;;;;7.68;1.45;;;15.90;72.60;;;;;;2461065;53;20988;-76
2021/05/17 08:53:04;;;;;;;5.93;1.00;;;15.90;72.40;;;;;;2336568;54;21933;-74
2021/05/17 08:55:31;;;;;;;5.32;1.00;;;15.80;72.70;;;;;;2338693;54;20922;-74
2021/05/17 08:57:58;;;;;;;3.83;0.90;;;15.80;73.30;;;;;;2341430;54;20898;-76
2021/05/17 09:00:24;;;;;;;3.90;0.90;;;15.80;73.60;;;;;;2343460;54;20986;-73
2021/05/17 09:02:52;;;;;;;6.35;0.98;;;15.80;73.80;;;;;;2331383;53;20988;-76
2021/05/17 09:05:36;;;;;;;5.12;1.00;;;15.80;73.70;;;;;;2333020;54;20934;-75
2021/05/17 09:08:04;;;;;;;4.68;0.90;;;15.80;72.80;;;;;;2456003;53;21025;-74
2021/05/17 09:10:39;;;;;;;4.82;0.90;;;15.80;72.70;;;;;;2343654;54;20982;-74
2021/05/17 09:13:10;;;;;;;5.18;1.00;;;15.90;73.60;;;;;;2522128;53;20964;-74
2021/05/17 09:15:55;;;;;;;3.20;0.77;;;15.90;73.90;;;;;;2335207;54;20932;-73
2021/05/17 09:18:24;;;;;;;3.58;0.80;;;15.90;72.90;;;;;;2345094;53;21553;-74
2021/05/17 09:20:51;;;;;;;4.72;0.80;;;16.00;73.60;;;;;;2343202;54;20934;-74
2021/05/17 09:23:24;;;;;;;3.53;0.90;;;16.00;74.00;;;;;;2584036;52;21794;-72
2021/05/17 09:26:13;;;;;;;3.53;0.70;;;16.10;74.30;;;;;;2318963;54;21805;-74
2021/05/17 09:28:47;;;;;;;4.97;0.77;;;16.10;73.60;;;;;;2311723;55;20933;-75
2021/05/17 09:31:20;;;;;;;4.47;0.70;;;16.10;73.80;;;;;;2317481;55;21468;-72
2021/05/17 09:33:58;;;;;;;3.55;0.90;;;16.20;73.70;;;;;;2315928;55;20915;-74
2021/05/17 09:36:39;;;;;;;3.95;0.70;;;16.20;72.90;;;;;;2340523;53;20945;-75
2021/05/17 09:39:18;;;;;;;5.00;1.10;;;16.30;73.20;;;;;;2320067;53;20938;-73
2021/05/17 09:41:51;;;;;;;3.15;0.80;;;16.30;72.90;;;;;;2502626;53;21517;-74
2021/05/17 09:44:25;;;;;;;2.75;1.00;;;16.30;73.00;;;;;;2316140;54;21048;-73
2021/05/17 09:47:08;;;;;;;3.90;0.70;;;16.30;70.30;;;;;;2323619;54;20960;-73
2021/05/17 09:49:56;;;;;;;1.73;0.60;;;16.30;70.70;;;;;;2547440;52;20903;-74
2021/05/17 09:52:29;;;;;;;3.85;0.90;;;16.20;71.30;;;;;;2584417;52;20947;-72
2021/05/17 09:55:06;;;;;;;3.80;0.70;;;16.30;72.00;;;;;;2340090;54;20954;-76
2021/05/17 09:57:40;;;;;;;2.62;0.70;;;16.30;71.10;;;;;;2338230;54;20956;-73
2021/05/17 10:00:28;;;;;;;2.42;0.50;;;16.30;71.40;;;;;;2589702;52;21423;-73
2021/05/17 10:02:55;;;;;;;6.82;1.37;;;16.30;71.40;;;;;;2342984;54;21019;-74
2021/05/17 10:05:35;;;;;;;4.05;0.60;;;16.30;70.80;;;;;;2343114;54;20906;-76
2021/05/17 10:08:09;;;;;;;1.85;0.30;;;16.30;72.10;;;;;;2345529;54;21033;-72
2021/05/17 10:10:42;;;;;;;4.05;0.80;;;16.40;73.10;;;;;;2353577;54;20915;-72
2021/05/17 10:13:09;;;;;;;3.17;0.62;;;16.50;71.70;;;;;;2339186;54;21002;-73
2021/05/17 10:15:35;;;;;;;2.42;0.50;;;16.50;69.70;;;;;;2343525;54;20961;-73
2021/05/17 10:18:11;;;;;;;2.30;0.70;;;16.50;70.20;;;;;;2443283;53;21514;-72
2021/05/17 10:20:38;;;;;;;2.55;0.62;;;16.50;70.10;;;;;;2358853;53;21407;-71
2021/05/17 10:23:04;;;;;;;1.70;0.40;;;16.40;69.60;;;;;;2594660;52;20990;-73
2021/05/17 10:25:31;;;;;;;2.92;0.60;;;16.40;69.90;;;;;;2338246;54;21017;-71
2021/05/17 10:28:18;;;;;;;3.10;1.00;;;16.40;69.70;;;;;;2321907;54;21021;-73
2021/05/17 10:30:47;;;;;;;2.37;0.50;;;16.30;69.40;;;;;;2330701;54;21019;-72
2021/05/17 10:33:29;;;;;;;3.87;0.65;;;16.30;69.70;;;;;;2314758;55;21851;-73
2021/05/17 10:35:55;;;;;;;2.20;0.52;;;16.30;69.60;;;;;;2325557;54;21014;-72
2021/05/17 10:41:42;;;;;;;3.22;0.70;;;16.30;71.30;;;;;;2343375;54;20965;-72
2021/05/17 10:47:28;;;;;;;4.82;0.90;;;16.30;72.20;;;;;;2344159;54;21018;-73
2021/05/17 10:50:11;;;;;;;4.45;0.85;;;16.40;71.20;;;;;;2342564;54;20938;-72
2021/05/17 10:52:37;;;;;;;1.90;0.60;;;16.40;69.50;;;;;;2342945;54;20986;-72
2021/05/17 10:55:12;;;;;;;3.65;1.00;;;16.40;71.70;;;;;;2323334;54;20992;-71
2021/05/17 10:58:08;;;;;;;3.80;0.90;;;16.40;71.60;;;;;;2587581;52;20930;-72
2021/05/17 11:00:35;;;;;;;4.45;0.98;;;16.50;71.90;;;;;;2343353;54;21045;-72
2021/05/17 11:03:18;;;;;;;2.20;0.73;;;16.50;72.60;;;;;;2342932;54;20922;-70
2021/05/17 11:05:45;;;;;;;4.50;0.57;;;16.60;72.50;;;;;;2343078;54;20923;-72
2021/05/17 11:08:17;;;;;;;3.62;0.85;;;16.70;73.50;;;;;;2340182;54;20987;-72
2021/05/17 11:10:55;;;;;;;4.28;1.37;;;16.80;73.30;;;;;;2368918;53;20948;-72
2021/05/17 11:13:23;;;;;;;3.42;1.00;;;16.80;72.30;;;;;;2339053;54;20946;-73
2021/05/17 11:16:08;;;;;;;3.33;0.88;;;16.90;73.40;;;;;;2337271;54;20963;-71
2021/05/17 11:18:43;;;;;;;2.75;0.77;;;17.00;72.50;;;;;;2392166;53;20958;-72
2021/05/17 11:21:13;;;;;;;2.70;0.90;;;17.00;73.00;;;;;;2342504;54;20988;-73
2021/05/17 11:23:49;;;;;;;5.00;1.60;;;17.10;73.40;;;;;;2338639;54;20971;-72
2021/05/17 11:26:18;;;;;;;4.53;1.50;;;17.10;72.30;;;;;;2532268;53;21443;-74
2021/05/17 11:28:54;;;;;;;4.70;1.23;;;17.20;73.10;;;;;;2342803;54;20922;-73
2021/05/17 11:31:42;;;;;;;2.40;0.82;;;17.20;70.30;;;;;;2343907;54;21017;-73
2021/05/17 11:34:13;;;;;;;3.17;1.10;;;17.20;70.20;;;;;;2500176;52;20965;-74
2021/05/17 11:36:51;;;;;;;3.40;0.93;;;17.10;70.20;;;;;;2589397;52;21097;-73
2021/05/17 11:39:21;;;;;;;2.20;0.60;;;17.00;69.50;;;;;;2457270;53;20961;-73
2021/05/17 11:42:20;;;;;;;2.25;0.75;;;16.90;70.00;;;;;;2501988;53;21603;-74
2021/05/17 11:44:59;;;;;;;2.55;0.70;;;16.90;69.80;;;;;;2329743;54;20942;-72
2021/05/17 11:47:31;;;;;;;2.67;0.60;;;16.80;70.80;;;;;;2342716;54;21364;-73
2021/05/17 11:50:04;;;;;;;4.35;0.70;;;16.70;70.80;;;;;;2342980;54;20964;-73
2021/05/17 11:52:30;;;;;;;4.00;0.77;;;16.60;71.10;;;;;;2342804;54;20966;-74
2021/05/17 11:54:58;;;;;;;4.25;0.80;;;16.60;70.40;;;;;;2343157;54;21780;-75
2021/05/17 11:57:28;;;;;;;2.75;0.70;;;16.50;69.70;;;;;;2343466;54;20923;-74
2021/05/17 12:00:21;;;;;;;2.28;0.80;;;16.50;70.70;;;;;;2343475;54;21411;-72
2021/05/17 12:02:48;;;;;;;3.92;0.80;;;16.50;71.60;;;;;;2333683;54;21492;-71
2021/05/17 12:05:14;;;;;;;2.75;0.70;;;16.50;73.10;;;;;;2337218;54;21777;-73
2021/05/17 12:07:51;;;;;;;3.20;0.77;;;16.50;74.00;;;;;;2337680;54;21784;-74
2021/05/17 12:10:18;;;;;;;2.37;0.70;;;16.60;73.20;;;;;;2342796;54;20974;-75
2021/05/17 12:12:44;;;;;;;1.92;0.50;;;16.70;74.10;;;;;;2342257;54;20981;-74
2021/05/17 12:15:15;;;;;;;2.47;0.62;;;16.70;74.30;;;;;;2456915;52;20962;-75
2021/05/17 12:17:42;;;;;;;3.53;0.52;;;16.80;72.40;;;;;;2472948;52;20985;-75
2021/05/17 12:20:10;;;;;;;2.65;0.70;;;16.90;72.80;;;;;;2589886;52;21569;-73
2021/05/17 12:22:39;;;;;;;1.75;0.62;;;16.90;71.80;;;;;;2343713;54;20935;-75
2021/05/17 12:25:24;;;;;;;2.10;0.70;;;16.90;71.60;;;;;;2346045;54;21920;-74
2021/05/17 12:27:52;;;;;;;2.20;0.50;;;17.00;71.00;;;;;;2322301;54;20987;-74
2021/05/17 12:30:24;;;;;;;1.12;0.40;;;17.10;72.40;;;;;;2343425;54;20950;-75
2021/05/17 12:32:52;;;;;;;1.12;0.40;;;17.10;72.10;;;;;;2336303;54;21024;-73
2021/05/17 12:35:32;;;;;;;2.70;0.40;;;17.10;72.30;;;;;;2329669;54;20960;-74
2021/05/17 12:38:19;;;;;;;2.25;0.40;;;17.10;71.00;;;;;;2582620;52;20921;-73
2021/05/17 12:40:47;;;;;;;1.35;0.60;;;17.10;70.00;;;;;;2341319;54;20998;-73
2021/05/17 12:43:38;;;;;;;1.08;0.30;;;17.00;70.20;;;;;;2555271;52;21954;-75
2021/05/17 12:46:10;;;;;;;0.88;0.30;;;17.00;69.30;;;;;;2425224;52;20972;-74
2021/05/17 12:48:40;;;;;;;1.77;0.50;;;16.80;69.90;;;;;;2339386;54;21394;-75
2021/05/17 12:51:59;;;;;;;0.80;0.40;;;16.70;70.60;;;;;;2340588;54;21002;-74
2021/05/17 12:54:25;;;;;;;2.45;0.70;;;16.60;72.80;;;;;;2440452;53;21038;-74
2021/05/17 12:56:51;;;;;;;3.10;0.60;;;16.50;73.50;;;;;;2554727;53;20971;-75
2021/05/17 12:59:20;;;;;;;1.30;0.37;;;16.50;74.00;;;;;;2307871;53;20931;-74
2021/05/17 13:01:48;;;;;;;2.40;0.60;;;16.50;74.80;;;;;;2331544;53;21048;-75
2021/05/17 13:04:27;;;;;;;2.45;0.60;;;16.60;75.80;;;;;;2336551;54;20944;-74
2021/05/17 13:07:03;;;;;;;2.78;0.75;;;16.70;75.70;;;;;;2554331;53;20993;-73
2021/05/17 13:09:32;;;;;;;1.20;0.45;;;16.80;74.60;;;;;;2314349;54;20948;-73
2021/05/17 13:11:59;;;;;;;1.17;0.55;;;16.80;74.90;;;;;;2314315;54;20937;-74
2021/05/17 13:14:26;;;;;;;1.42;0.50;;;16.90;74.60;;;;;;2314161;54;21005;-75
2021/05/17 13:17:03;;;;;;;2.33;0.73;;;16.90;74.00;;;;;;2313999;54;20921;-73
2021/05/17 13:19:44;;;;;;;1.27;0.60;;;17.00;72.60;;;;;;2324619;54;21008;-71
2021/05/17 13:31:13;;;;;;;0.85;0.40;;;16.90;72.60;;;;;;2339101;54;20940;-72
2021/05/17 13:33:47;;;;;;;3.70;0.80;;;16.90;72.80;;;;;;2575273;52;20887;-73
2021/05/17 13:36:20;;;;;;;3.05;0.60;;;16.80;72.10;;;;;;2580457;52;20999;-72
2021/05/17 13:38:49;;;;;;;0.80;0.30;;;16.80;70.80;;;;;;2342016;54;20993;-71
2021/05/17 13:41:15;;;;;;;1.83;0.70;;;16.80;71.70;;;;;;2338967;53;20969;-71